sensor_id;sensor_type;location;lat;lon;timestamp;temperature;humidity
3648;DHT22;1840;48.892;15.312;2023-04-24T00:01:10;7.00;99.90
3648;DHT22;1840;48.892;15.312;2023-04-24T00:03:39;7.10;99.90
3648;DHT22;1840;48.892;15.312;2023-04-24T00:06:08;7.00;99.90
3648;DHT22;1840;48.892;15.312;2023-04-24T00:08:37;6.90;99.90
3648;DHT22;1840;48.892;15.312;2023-04-24T00:11:05;6.90;99.90
3648;DHT22;1840;48.892;15.312;2023-04-24T00:13:33;6.90;99.90
3648;DHT22;1840;48.892;15.312;2023-04-24T00:16:01;7.00;99.90
3648;DHT22;1840;48.892;15.312;2023-04-24T00:18:29;7.10;99.90
3648;DHT22;1840;48.892;15.312;2023-04-24T00:20:57;7.10;99.90
3648;DHT22;1840;48.892;15.312;2023-04-24T00:23:25;7.00;99.90
3648;DHT22;1840;48.892;15.312;2023-04-24T00:25:55;6.90;99.90
3648;DHT22;1840;48.892;15.312;2023-04-24T00:28:23;6.90;99.90
3648;DHT22;1840;48.892;15.312;2023-04-24T00:30:51;6.80;99.90
3648;DHT22;1840;48.892;15.312;2023-04-24T00:33:19;6.70;99.90
3648;DHT22;1840;48.892;15.312;2023-04-24T00:35:47;6.70;99.90
3648;DHT22;1840;48.892;15.312;2023-04-24T00:38:15;6.60;99.90
3648;DHT22;1840;48.892;15.312;2023-04-24T00:40:43;6.60;99.90
3648;DHT22;1840;48.892;15.312;2023-04-24T00:43:12;6.60;99.90
3648;DHT22;1840;48.892;15.312;2023-04-24T00:45:41;6.60;99.90
3648;DHT22;1840;48.892;15.312;2023-04-24T00:48:09;6.60;99.90
3648;DHT22;1840;48.892;15.312;2023-04-24T00:50:38;6.60;99.90
3648;DHT22;1840;48.892;15.312;2023-04-24T00:53:06;6.70;99.90
3648;DHT22;1840;48.892;15.312;2023-04-24T00:55:35;6.80;99.90
3648;DHT22;1840;48.892;15.312;2023-04-24T00:58:05;6.60;99.90
3648;DHT22;1840;48.892;15.312;2023-04-24T01:00:35;6.60;99.90
3648;DHT22;1840;48.892;15.312;2023-04-24T01:03:04;6.60;99.90
3648;DHT22;1840;48.892;15.312;2023-04-24T01:05:33;6.70;99.90
3648;DHT22;1840;48.892;15.312;2023-04-24T01:08:01;6.60;99.90
3648;DHT22;1840;48.892;15.312;2023-04-24T01:10:31;6.60;99.90
3648;DHT22;1840;48.892;15.312;2023-04-24T01:13:00;6.50;99.90
3648;DHT22;1840;48.892;15.312;2023-04-24T01:15:28;6.50;99.90
3648;DHT22;1840;48.892;15.312;2023-04-24T01:17:58;6.50;99.90
3648;DHT22;1840;48.892;15.312;2023-04-24T01:20:26;6.60;99.90
3648;DHT22;1840;48.892;15.312;2023-04-24T01:22:56;6.60;99.90
3648;DHT22;1840;48.892;15.312;2023-04-24T01:25:25;6.70;99.90
3648;DHT22;1840;48.892;15.312;2023-04-24T01:27:54;6.80;99.90
3648;DHT22;1840;48.892;15.312;2023-04-24T01:30:22;6.80;99.90
3648;DHT22;1840;48.892;15.312;2023-04-24T01:32:51;6.80;99.90
3648;DHT22;1840;48.892;15.312;2023-04-24T01:35:19;6.90;99.90
3648;DHT22;1840;48.892;15.312;2023-04-24T01:37:47;6.90;99.90
3648;DHT22;1840;48.892;15.312;2023-04-24T01:40:17;6.90;99.90
3648;DHT22;1840;48.892;15.312;2023-04-24T01:42:45;7.00;99.90
3648;DHT22;1840;48.892;15.312;2023-04-24T01:45:13;6.80;99.90
3648;DHT22;1840;48.892;15.312;2023-04-24T01:47:41;6.90;99.90
3648;DHT22;1840;48.892;15.312;2023-04-24T01:50:10;6.70;99.90
3648;DHT22;1840;48.892;15.312;2023-04-24T01:52:38;6.70;99.90
3648;DHT22;1840;48.892;15.312;2023-04-24T01:55:07;6.80;99.90
3648;DHT22;1840;48.892;15.312;2023-04-24T01:57:37;6.80;99.90
3648;DHT22;1840;48.892;15.312;2023-04-24T02:00:07;6.80;99.90
3648;DHT22;1840;48.892;15.312;2023-04-24T02:02:35;6.70;99.90
3648;DHT22;1840;48.892;15.312;2023-04-24T02:05:06;6.80;99.90
3648;DHT22;1840;48.892;15.312;2023-04-24T02:07:34;6.70;99.90
3648;DHT22;1840;48.892;15.312;2023-04-24T02:10:02;6.60;99.90
3648;DHT22;1840;48.892;15.312;2023-04-24T02:12:30;6.60;99.90
3648;DHT22;1840;48.892;15.312;2023-04-24T02:15:00;6.60;99.90
3648;DHT22;1840;48.892;15.312;2023-04-24T02:17:28;6.70;99.90
3648;DHT22;1840;48.892;15.312;2023-04-24T02:19:57;6.70;99.90
3648;DHT22;1840;48.892;15.312;2023-04-24T02:22:25;6.70;99.90
3648;DHT22;1840;48.892;15.312;2023-04-24T02:24:53;6.80;99.90
3648;DHT22;1840;48.892;15.312;2023-04-24T02:27:21;6.80;99.90
3648;DHT22;1840;48.892;15.312;2023-04-24T02:29:49;6.70;99.90
3648;DHT22;1840;48.892;15.312;2023-04-24T02:32:19;6.70;99.90
3648;DHT22;1840;48.892;15.312;2023-04-24T02:34:47;6.50;99.90
3648;DHT22;1840;48.892;15.312;2023-04-24T02:37:15;6.30;99.90
3648;DHT22;1840;48.892;15.312;2023-04-24T02:39:43;6.40;99.90
3648;DHT22;1840;48.892;15.312;2023-04-24T02:42:11;6.50;99.90
3648;DHT22;1840;48.892;15.312;2023-04-24T02:44:39;6.40;99.90
3648;DHT22;1840;48.892;15.312;2023-04-24T02:47:07;6.50;99.90
3648;DHT22;1840;48.892;15.312;2023-04-24T02:49:37;6.60;99.90
3648;DHT22;1840;48.892;15.312;2023-04-24T02:52:05;6.60;99.90
3648;DHT22;1840;48.892;15.312;2023-04-24T02:54:34;6.50;99.90
3648;DHT22;1840;48.892;15.312;2023-04-24T02:57:02;6.40;99.90
3648;DHT22;1840;48.892;15.312;2023-04-24T02:59:29;6.50;99.90
3648;DHT22;1840;48.892;15.312;2023-04-24T03:01:58;6.60;99.90
3648;DHT22;1840;48.892;15.312;2023-04-24T03:04:26;6.50;99.90
3648;DHT22;1840;48.892;15.312;2023-04-24T03:06:56;6.70;99.90
3648;DHT22;1840;48.892;15.312;2023-04-24T03:09:24;6.70;99.90
3648;DHT22;1840;48.892;15.312;2023-04-24T03:11:52;6.70;99.90
3648;DHT22;1840;48.892;15.312;2023-04-24T03:14:20;6.70;99.90
3648;DHT22;1840;48.892;15.312;2023-04-24T03:16:48;6.80;99.90
3648;DHT22;1840;48.892;15.312;2023-04-24T03:19:16;6.70;99.90
3648;DHT22;1840;48.892;15.312;2023-04-24T03:21:44;6.80;99.90
3648;DHT22;1840;48.892;15.312;2023-04-24T03:24:14;6.70;99.90
3648;DHT22;1840;48.892;15.312;2023-04-24T03:26:42;6.80;99.90
3648;DHT22;1840;48.892;15.312;2023-04-24T03:29:10;6.90;99.90
3648;DHT22;1840;48.892;15.312;2023-04-24T03:31:38;6.90;99.90
3648;DHT22;1840;48.892;15.312;2023-04-24T03:34:06;6.90;99.90
3648;DHT22;1840;48.892;15.312;2023-04-24T03:36:34;7.00;99.90
3648;DHT22;1840;48.892;15.312;2023-04-24T03:39:02;7.00;99.90
3648;DHT22;1840;48.892;15.312;2023-04-24T03:41:32;7.10;99.90
3648;DHT22;1840;48.892;15.312;2023-04-24T03:44:00;7.10;99.90
3648;DHT22;1840;48.892;15.312;2023-04-24T03:46:28;7.20;99.90
3648;DHT22;1840;48.892;15.312;2023-04-24T03:48:56;7.10;99.90
3648;DHT22;1840;48.892;15.312;2023-04-24T03:51:24;7.00;99.90
3648;DHT22;1840;48.892;15.312;2023-04-24T03:53:54;7.10;99.90
3648;DHT22;1840;48.892;15.312;2023-04-24T03:56:22;7.30;99.90
3648;DHT22;1840;48.892;15.312;2023-04-24T03:58:51;7.40;99.90
3648;DHT22;1840;48.892;15.312;2023-04-24T04:01:19;7.30;99.90
3648;DHT22;1840;48.892;15.312;2023-04-24T04:03:48;7.30;99.90
3648;DHT22;1840;48.892;15.312;2023-04-24T04:06:16;7.30;99.90
3648;DHT22;1840;48.892;15.312;2023-04-24T04:08:46;7.10;99.90
3648;DHT22;1840;48.892;15.312;2023-04-24T04:11:14;7.30;99.90
3648;DHT22;1840;48.892;15.312;2023-04-24T04:13:42;7.10;99.90
3648;DHT22;1840;48.892;15.312;2023-04-24T04:16:11;7.10;99.90
3648;DHT22;1840;48.892;15.312;2023-04-24T04:18:39;7.10;99.90
3648;DHT22;1840;48.892;15.312;2023-04-24T04:21:07;7.00;99.90
3648;DHT22;1840;48.892;15.312;2023-04-24T04:23:35;7.10;99.90
3648;DHT22;1840;48.892;15.312;2023-04-24T04:26:04;7.30;99.90
3648;DHT22;1840;48.892;15.312;2023-04-24T04:28:33;7.30;99.90
3648;DHT22;1840;48.892;15.312;2023-04-24T04:31:02;7.40;99.90
3648;DHT22;1840;48.892;15.312;2023-04-24T04:33:32;7.50;99.90
3648;DHT22;1840;48.892;15.312;2023-04-24T04:36:00;7.60;99.90
3648;DHT22;1840;48.892;15.312;2023-04-24T04:38:29;7.50;99.90
3648;DHT22;1840;48.892;15.312;2023-04-24T04:40:58;7.50;99.90
3648;DHT22;1840;48.892;15.312;2023-04-24T04:43:25;7.60;99.90
3648;DHT22;1840;48.892;15.312;2023-04-24T04:45:54;7.70;99.90
3648;DHT22;1840;48.892;15.312;2023-04-24T04:48:22;7.70;99.90
3648;DHT22;1840;48.892;15.312;2023-04-24T04:50:52;7.70;99.90
3648;DHT22;1840;48.892;15.312;2023-04-24T04:53:20;7.90;99.90
3648;DHT22;1840;48.892;15.312;2023-04-24T04:55:48;7.80;99.90
3648;DHT22;1840;48.892;15.312;2023-04-24T04:58:16;7.90;99.90
3648;DHT22;1840;48.892;15.312;2023-04-24T05:00:44;8.10;99.90
3648;DHT22;1840;48.892;15.312;2023-04-24T05:03:12;8.30;99.90
3648;DHT22;1840;48.892;15.312;2023-04-24T05:05:44;8.40;99.90
3648;DHT22;1840;48.892;15.312;2023-04-24T05:08:13;8.50;99.90
3648;DHT22;1840;48.892;15.312;2023-04-24T05:10:53;8.50;99.90
3648;DHT22;1840;48.892;15.312;2023-04-24T05:13:21;8.70;99.90
3648;DHT22;1840;48.892;15.312;2023-04-24T05:16:04;8.60;99.90
3648;DHT22;1840;48.892;15.312;2023-04-24T05:18:32;8.70;99.90
3648;DHT22;1840;48.892;15.312;2023-04-24T05:21:00;8.80;99.90
3648;DHT22;1840;48.892;15.312;2023-04-24T05:23:30;8.90;99.90
3648;DHT22;1840;48.892;15.312;2023-04-24T05:25:58;8.70;99.90
3648;DHT22;1840;48.892;15.312;2023-04-24T05:28:26;8.80;99.90
3648;DHT22;1840;48.892;15.312;2023-04-24T05:30:55;8.90;99.90
3648;DHT22;1840;48.892;15.312;2023-04-24T05:33:23;8.90;99.90
3648;DHT22;1840;48.892;15.312;2023-04-24T05:35:51;8.80;99.90
3648;DHT22;1840;48.892;15.312;2023-04-24T05:38:19;8.90;99.90
3648;DHT22;1840;48.892;15.312;2023-04-24T05:40:49;8.90;99.90
3648;DHT22;1840;48.892;15.312;2023-04-24T05:43:17;8.60;99.90
3648;DHT22;1840;48.892;15.312;2023-04-24T05:45:45;8.80;99.90
3648;DHT22;1840;48.892;15.312;2023-04-24T05:48:13;8.90;99.90
3648;DHT22;1840;48.892;15.312;2023-04-24T05:50:41;8.90;99.90
3648;DHT22;1840;48.892;15.312;2023-04-24T05:53:10;9.00;99.90
3648;DHT22;1840;48.892;15.312;2023-04-24T05:55:38;9.00;99.90
3648;DHT22;1840;48.892;15.312;2023-04-24T05:58:07;9.00;99.90
3648;DHT22;1840;48.892;15.312;2023-04-24T06:00:35;8.90;99.90
3648;DHT22;1840;48.892;15.312;2023-04-24T06:03:04;9.00;99.90
3648;DHT22;1840;48.892;15.312;2023-04-24T06:05:32;9.10;99.90
3648;DHT22;1840;48.892;15.312;2023-04-24T06:08:01;9.10;99.90
3648;DHT22;1840;48.892;15.312;2023-04-24T06:10:29;9.10;99.90
3648;DHT22;1840;48.892;15.312;2023-04-24T06:12:58;9.10;99.90
3648;DHT22;1840;48.892;15.312;2023-04-24T06:15:30;9.30;99.90
3648;DHT22;1840;48.892;15.312;2023-04-24T06:17:58;9.10;99.90
3648;DHT22;1840;48.892;15.312;2023-04-24T06:20:26;9.20;99.90
3648;DHT22;1840;48.892;15.312;2023-04-24T06:22:54;9.30;99.90
3648;DHT22;1840;48.892;15.312;2023-04-24T06:25:25;9.60;99.90
3648;DHT22;1840;48.892;15.312;2023-04-24T06:27:53;9.90;99.90
3648;DHT22;1840;48.892;15.312;2023-04-24T06:30:22;9.90;99.90
3648;DHT22;1840;48.892;15.312;2023-04-24T06:32:52;10.00;99.90
3648;DHT22;1840;48.892;15.312;2023-04-24T06:35:28;10.00;99.90
3648;DHT22;1840;48.892;15.312;2023-04-24T06:37:56;10.00;99.90
3648;DHT22;1840;48.892;15.312;2023-04-24T06:40:24;9.90;99.90
3648;DHT22;1840;48.892;15.312;2023-04-24T06:42:52;9.80;99.90
3648;DHT22;1840;48.892;15.312;2023-04-24T06:45:21;9.90;99.90
3648;DHT22;1840;48.892;15.312;2023-04-24T06:47:51;9.80;99.90
3648;DHT22;1840;48.892;15.312;2023-04-24T06:50:19;9.90;99.90
3648;DHT22;1840;48.892;15.312;2023-04-24T06:52:48;10.00;99.90
3648;DHT22;1840;48.892;15.312;2023-04-24T06:55:16;9.80;99.90
3648;DHT22;1840;48.892;15.312;2023-04-24T06:57:44;9.70;99.90
3648;DHT22;1840;48.892;15.312;2023-04-24T07:00:13;9.80;99.90
3648;DHT22;1840;48.892;15.312;2023-04-24T07:02:41;9.70;99.90
3648;DHT22;1840;48.892;15.312;2023-04-24T07:05:10;9.90;99.90
3648;DHT22;1840;48.892;15.312;2023-04-24T07:07:39;9.70;99.90
3648;DHT22;1840;48.892;15.312;2023-04-24T07:10:08;9.50;99.90
3648;DHT22;1840;48.892;15.312;2023-04-24T07:12:36;9.50;99.90
3648;DHT22;1840;48.892;15.312;2023-04-24T07:15:05;9.50;99.90
3648;DHT22;1840;48.892;15.312;2023-04-24T07:17:34;9.50;99.90
3648;DHT22;1840;48.892;15.312;2023-04-24T07:20:06;9.30;99.90
3648;DHT22;1840;48.892;15.312;2023-04-24T07:22:37;9.40;99.90
3648;DHT22;1840;48.892;15.312;2023-04-24T07:25:06;9.30;99.90
3648;DHT22;1840;48.892;15.312;2023-04-24T07:27:35;9.20;99.90
3648;DHT22;1840;48.892;15.312;2023-04-24T07:30:04;9.30;99.90
3648;DHT22;1840;48.892;15.312;2023-04-24T07:32:33;9.30;99.90
3648;DHT22;1840;48.892;15.312;2023-04-24T07:35:01;9.00;99.90
3648;DHT22;1840;48.892;15.312;2023-04-24T07:37:30;8.90;99.90
3648;DHT22;1840;48.892;15.312;2023-04-24T07:39:59;8.70;99.90
3648;DHT22;1840;48.892;15.312;2023-04-24T07:42:28;8.60;99.90
3648;DHT22;1840;48.892;15.312;2023-04-24T07:44:57;8.70;99.90
3648;DHT22;1840;48.892;15.312;2023-04-24T07:47:26;9.00;99.90
3648;DHT22;1840;48.892;15.312;2023-04-24T07:49:54;8.90;99.90
3648;DHT22;1840;48.892;15.312;2023-04-24T07:52:23;8.70;99.90
3648;DHT22;1840;48.892;15.312;2023-04-24T07:54:51;8.80;99.90
3648;DHT22;1840;48.892;15.312;2023-04-24T07:57:26;8.60;99.90
3648;DHT22;1840;48.892;15.312;2023-04-24T07:59:54;8.60;99.90
3648;DHT22;1840;48.892;15.312;2023-04-24T08:02:22;8.80;99.90
3648;DHT22;1840;48.892;15.312;2023-04-24T08:04:53;9.00;99.90
3648;DHT22;1840;48.892;15.312;2023-04-24T08:07:23;9.00;99.90
3648;DHT22;1840;48.892;15.312;2023-04-24T08:09:51;9.10;99.90
3648;DHT22;1840;48.892;15.312;2023-04-24T08:12:19;9.00;99.90
3648;DHT22;1840;48.892;15.312;2023-04-24T08:14:49;8.90;99.90
3648;DHT22;1840;48.892;15.312;2023-04-24T08:17:17;8.90;99.90
3648;DHT22;1840;48.892;15.312;2023-04-24T08:19:45;9.00;99.90
3648;DHT22;1840;48.892;15.312;2023-04-24T08:22:15;9.20;99.90
3648;DHT22;1840;48.892;15.312;2023-04-24T08:24:43;9.00;99.90
3648;DHT22;1840;48.892;15.312;2023-04-24T08:27:11;8.90;99.90
3648;DHT22;1840;48.892;15.312;2023-04-24T08:29:39;8.80;99.90
3648;DHT22;1840;48.892;15.312;2023-04-24T08:32:08;9.10;99.90
3648;DHT22;1840;48.892;15.312;2023-04-24T08:34:36;9.10;99.90
3648;DHT22;1840;48.892;15.312;2023-04-24T08:37:05;9.20;99.90
3648;DHT22;1840;48.892;15.312;2023-04-24T08:39:33;9.20;99.90
3648;DHT22;1840;48.892;15.312;2023-04-24T08:42:02;9.20;99.90
3648;DHT22;1840;48.892;15.312;2023-04-24T08:44:35;9.30;99.90
3648;DHT22;1840;48.892;15.312;2023-04-24T08:47:04;9.20;99.90
3648;DHT22;1840;48.892;15.312;2023-04-24T08:49:36;9.10;99.90
3648;DHT22;1840;48.892;15.312;2023-04-24T08:52:05;9.10;99.90
3648;DHT22;1840;48.892;15.312;2023-04-24T08:54:35;9.20;99.90
3648;DHT22;1840;48.892;15.312;2023-04-24T08:57:06;9.20;99.90
3648;DHT22;1840;48.892;15.312;2023-04-24T08:59:36;9.10;99.90
3648;DHT22;1840;48.892;15.312;2023-04-24T09:02:06;9.10;99.90
3648;DHT22;1840;48.892;15.312;2023-04-24T09:04:40;9.10;99.90
3648;DHT22;1840;48.892;15.312;2023-04-24T09:07:10;8.80;99.90
3648;DHT22;1840;48.892;15.312;2023-04-24T09:09:40;8.90;99.90
3648;DHT22;1840;48.892;15.312;2023-04-24T09:12:09;8.50;99.90
3648;DHT22;1840;48.892;15.312;2023-04-24T09:14:39;8.60;99.90
3648;DHT22;1840;48.892;15.312;2023-04-24T09:17:12;8.50;99.90
3648;DHT22;1840;48.892;15.312;2023-04-24T09:19:42;8.60;99.90
3648;DHT22;1840;48.892;15.312;2023-04-24T09:22:11;8.70;99.90
3648;DHT22;1840;48.892;15.312;2023-04-24T09:24:39;8.80;99.90
3648;DHT22;1840;48.892;15.312;2023-04-24T09:27:07;8.90;99.90
3648;DHT22;1840;48.892;15.312;2023-04-24T09:29:38;9.10;99.90
3648;DHT22;1840;48.892;15.312;2023-04-24T09:32:18;9.20;99.90
3648;DHT22;1840;48.892;15.312;2023-04-24T09:34:50;9.10;99.90
3648;DHT22;1840;48.892;15.312;2023-04-24T09:37:35;9.30;99.90
3648;DHT22;1840;48.892;15.312;2023-04-24T09:40:14;9.40;99.90
3648;DHT22;1840;48.892;15.312;2023-04-24T09:42:44;9.10;99.90
3648;DHT22;1840;48.892;15.312;2023-04-24T09:45:13;9.30;99.90
3648;DHT22;1840;48.892;15.312;2023-04-24T09:47:42;9.60;99.90
3648;DHT22;1840;48.892;15.312;2023-04-24T09:50:16;9.90;99.90
3648;DHT22;1840;48.892;15.312;2023-04-24T09:52:56;9.70;99.90
3648;DHT22;1840;48.892;15.312;2023-04-24T09:55:25;9.60;99.90
3648;DHT22;1840;48.892;15.312;2023-04-24T09:57:54;9.90;99.90
3648;DHT22;1840;48.892;15.312;2023-04-24T10:00:24;10.00;99.90
3648;DHT22;1840;48.892;15.312;2023-04-24T10:02:57;10.40;99.90
3648;DHT22;1840;48.892;15.312;2023-04-24T10:05:31;10.30;99.90
3648;DHT22;1840;48.892;15.312;2023-04-24T10:08:04;10.60;99.90
3648;DHT22;1840;48.892;15.312;2023-04-24T10:10:34;10.90;99.90
3648;DHT22;1840;48.892;15.312;2023-04-24T10:13:05;11.00;99.90
3648;DHT22;1840;48.892;15.312;2023-04-24T10:15:34;10.70;99.90
3648;DHT22;1840;48.892;15.312;2023-04-24T10:18:04;10.80;99.90
3648;DHT22;1840;48.892;15.312;2023-04-24T10:20:36;10.80;99.90
3648;DHT22;1840;48.892;15.312;2023-04-24T10:23:05;10.40;99.90
3648;DHT22;1840;48.892;15.312;2023-04-24T10:25:35;10.10;99.90
3648;DHT22;1840;48.892;15.312;2023-04-24T10:28:04;10.00;99.90
3648;DHT22;1840;48.892;15.312;2023-04-24T10:30:35;10.20;99.90
3648;DHT22;1840;48.892;15.312;2023-04-24T10:33:04;10.20;99.90
3648;DHT22;1840;48.892;15.312;2023-04-24T10:35:37;10.30;99.90
3648;DHT22;1840;48.892;15.312;2023-04-24T10:38:08;10.30;99.90
3648;DHT22;1840;48.892;15.312;2023-04-24T10:40:36;10.20;99.90
3648;DHT22;1840;48.892;15.312;2023-04-24T10:43:05;10.30;99.90
3648;DHT22;1840;48.892;15.312;2023-04-24T10:45:35;10.40;99.90
3648;DHT22;1840;48.892;15.312;2023-04-24T10:48:05;10.50;99.90
3648;DHT22;1840;48.892;15.312;2023-04-24T10:50:47;10.80;99.90
3648;DHT22;1840;48.892;15.312;2023-04-24T10:53:17;10.90;99.90
3648;DHT22;1840;48.892;15.312;2023-04-24T10:55:47;11.00;99.90
3648;DHT22;1840;48.892;15.312;2023-04-24T10:58:16;11.10;99.90
3648;DHT22;1840;48.892;15.312;2023-04-24T11:00:48;10.90;99.90
3648;DHT22;1840;48.892;15.312;2023-04-24T11:03:25;11.00;99.90
3648;DHT22;1840;48.892;15.312;2023-04-24T11:06:00;11.10;99.90
3648;DHT22;1840;48.892;15.312;2023-04-24T11:08:30;11.10;99.90
3648;DHT22;1840;48.892;15.312;2023-04-24T11:11:00;10.70;99.90
3648;DHT22;1840;48.892;15.312;2023-04-24T11:14:05;10.50;99.90
3648;DHT22;1840;48.892;15.312;2023-04-24T11:16:43;10.30;99.90
3648;DHT22;1840;48.892;15.312;2023-04-24T11:19:22;10.30;99.90
3648;DHT22;1840;48.892;15.312;2023-04-24T11:21:58;10.30;99.90
3648;DHT22;1840;48.892;15.312;2023-04-24T11:24:30;10.40;99.90
3648;DHT22;1840;48.892;15.312;2023-04-24T11:27:00;10.30;99.90
3648;DHT22;1840;48.892;15.312;2023-04-24T11:29:44;10.40;99.90
3648;DHT22;1840;48.892;15.312;2023-04-24T11:32:18;10.70;99.90
3648;DHT22;1840;48.892;15.312;2023-04-24T11:34:48;10.90;99.90
3648;DHT22;1840;48.892;15.312;2023-04-24T11:37:17;11.00;99.90
3648;DHT22;1840;48.892;15.312;2023-04-24T11:39:46;10.90;99.90
3648;DHT22;1840;48.892;15.312;2023-04-24T11:42:15;10.90;99.90
3648;DHT22;1840;48.892;15.312;2023-04-24T11:44:43;11.10;99.90
3648;DHT22;1840;48.892;15.312;2023-04-24T11:47:14;10.90;99.90
3648;DHT22;1840;48.892;15.312;2023-04-24T11:49:42;10.80;99.90
3648;DHT22;1840;48.892;15.312;2023-04-24T11:52:11;10.90;99.90
3648;DHT22;1840;48.892;15.312;2023-04-24T11:54:48;11.00;99.90
3648;DHT22;1840;48.892;15.312;2023-04-24T11:57:19;11.20;99.90
3648;DHT22;1840;48.892;15.312;2023-04-24T11:59:49;10.90;99.90
3648;DHT22;1840;48.892;15.312;2023-04-24T12:02:21;10.80;99.90
3648;DHT22;1840;48.892;15.312;2023-04-24T12:04:50;11.10;99.90
3648;DHT22;1840;48.892;15.312;2023-04-24T12:07:19;11.00;99.90
3648;DHT22;1840;48.892;15.312;2023-04-24T12:09:56;11.10;99.90
3648;DHT22;1840;48.892;15.312;2023-04-24T12:12:28;11.30;99.90
3648;DHT22;1840;48.892;15.312;2023-04-24T12:14:57;11.40;99.90
3648;DHT22;1840;48.892;15.312;2023-04-24T12:17:29;11.60;99.90
3648;DHT22;1840;48.892;15.312;2023-04-24T12:19:58;11.60;99.90
3648;DHT22;1840;48.892;15.312;2023-04-24T12:22:35;11.60;99.90
3648;DHT22;1840;48.892;15.312;2023-04-24T12:25:13;11.70;99.90
3648;DHT22;1840;48.892;15.312;2023-04-24T12:27:44;11.80;99.90
3648;DHT22;1840;48.892;15.312;2023-04-24T12:30:14;12.20;99.90
3648;DHT22;1840;48.892;15.312;2023-04-24T12:32:45;12.30;99.70
3648;DHT22;1840;48.892;15.312;2023-04-24T12:35:18;12.40;99.90
3648;DHT22;1840;48.892;15.312;2023-04-24T12:37:47;12.90;99.90
3648;DHT22;1840;48.892;15.312;2023-04-24T12:40:17;13.20;99.70
3648;DHT22;1840;48.892;15.312;2023-04-24T12:42:47;13.20;99.10
3648;DHT22;1840;48.892;15.312;2023-04-24T12:45:17;13.50;99.10
3648;DHT22;1840;48.892;15.312;2023-04-24T12:47:46;13.00;99.00
3648;DHT22;1840;48.892;15.312;2023-04-24T12:50:15;13.10;99.90
3648;DHT22;1840;48.892;15.312;2023-04-24T12:52:44;13.50;99.90
3648;DHT22;1840;48.892;15.312;2023-04-24T12:55:12;13.80;98.90
3648;DHT22;1840;48.892;15.312;2023-04-24T12:57:43;13.80;98.10
3648;DHT22;1840;48.892;15.312;2023-04-24T13:00:12;13.50;98.80
3648;DHT22;1840;48.892;15.312;2023-04-24T13:02:40;13.50;99.10
3648;DHT22;1840;48.892;15.312;2023-04-24T13:05:08;13.40;98.00
3648;DHT22;1840;48.892;15.312;2023-04-24T13:07:38;12.90;97.90
3648;DHT22;1840;48.892;15.312;2023-04-24T13:10:07;13.20;98.70
3648;DHT22;1840;48.892;15.312;2023-04-24T13:12:35;13.40;98.50
3648;DHT22;1840;48.892;15.312;2023-04-24T13:15:07;13.10;98.60
3648;DHT22;1840;48.892;15.312;2023-04-24T13:17:36;12.90;98.00
3648;DHT22;1840;48.892;15.312;2023-04-24T13:20:06;12.90;97.70
3648;DHT22;1840;48.892;15.312;2023-04-24T13:22:34;12.60;98.00
3648;DHT22;1840;48.892;15.312;2023-04-24T13:25:04;12.50;97.80
3648;DHT22;1840;48.892;15.312;2023-04-24T13:27:34;12.60;97.80
3648;DHT22;1840;48.892;15.312;2023-04-24T13:30:06;12.60;98.30
3648;DHT22;1840;48.892;15.312;2023-04-24T13:32:34;12.60;98.30
3648;DHT22;1840;48.892;15.312;2023-04-24T13:35:03;12.80;98.10
3648;DHT22;1840;48.892;15.312;2023-04-24T13:37:31;12.70;97.60
3648;DHT22;1840;48.892;15.312;2023-04-24T13:39:59;12.50;98.40
3648;DHT22;1840;48.892;15.312;2023-04-24T13:42:27;12.60;98.60
3648;DHT22;1840;48.892;15.312;2023-04-24T13:44:56;12.50;98.50
3648;DHT22;1840;48.892;15.312;2023-04-24T13:47:25;12.20;98.10
3648;DHT22;1840;48.892;15.312;2023-04-24T13:49:53;11.90;97.70
3648;DHT22;1840;48.892;15.312;2023-04-24T13:52:21;11.60;98.00
3648;DHT22;1840;48.892;15.312;2023-04-24T13:54:49;10.60;98.60
3648;DHT22;1840;48.892;15.312;2023-04-24T13:57:17;9.30;99.50
3648;DHT22;1840;48.892;15.312;2023-04-24T13:59:45;8.60;99.90
3648;DHT22;1840;48.892;15.312;2023-04-24T14:02:13;8.10;99.90
3648;DHT22;1840;48.892;15.312;2023-04-24T14:04:42;7.80;99.90
3648;DHT22;1840;48.892;15.312;2023-04-24T14:07:11;7.70;99.90
3648;DHT22;1840;48.892;15.312;2023-04-24T14:09:39;7.70;99.90
3648;DHT22;1840;48.892;15.312;2023-04-24T14:12:07;7.60;99.90
3648;DHT22;1840;48.892;15.312;2023-04-24T14:14:35;7.50;99.90
3648;DHT22;1840;48.892;15.312;2023-04-24T14:17:03;7.70;99.90
3648;DHT22;1840;48.892;15.312;2023-04-24T14:19:31;7.90;99.90
3648;DHT22;1840;48.892;15.312;2023-04-24T14:22:01;8.30;99.90
3648;DHT22;1840;48.892;15.312;2023-04-24T14:24:29;8.10;99.90
3648;DHT22;1840;48.892;15.312;2023-04-24T14:26:57;8.50;99.90
3648;DHT22;1840;48.892;15.312;2023-04-24T14:29:25;8.30;99.90
3648;DHT22;1840;48.892;15.312;2023-04-24T14:31:53;8.20;99.90
3648;DHT22;1840;48.892;15.312;2023-04-24T14:34:21;8.30;99.90
3648;DHT22;1840;48.892;15.312;2023-04-24T14:36:49;8.50;99.90
3648;DHT22;1840;48.892;15.312;2023-04-24T14:39:18;8.80;99.90
3648;DHT22;1840;48.892;15.312;2023-04-24T14:41:47;8.90;99.90
3648;DHT22;1840;48.892;15.312;2023-04-24T14:44:15;8.90;99.90
3648;DHT22;1840;48.892;15.312;2023-04-24T14:46:43;9.10;99.90
3648;DHT22;1840;48.892;15.312;2023-04-24T14:49:11;9.30;99.90
3648;DHT22;1840;48.892;15.312;2023-04-24T14:51:39;9.60;99.90
3648;DHT22;1840;48.892;15.312;2023-04-24T14:54:07;9.70;99.90
3648;DHT22;1840;48.892;15.312;2023-04-24T14:56:36;9.80;99.90
3648;DHT22;1840;48.892;15.312;2023-04-24T14:59:07;9.80;99.90
3648;DHT22;1840;48.892;15.312;2023-04-24T15:01:35;10.00;99.90
3648;DHT22;1840;48.892;15.312;2023-04-24T15:04:03;10.20;99.90
3648;DHT22;1840;48.892;15.312;2023-04-24T15:06:31;10.10;99.90
3648;DHT22;1840;48.892;15.312;2023-04-24T15:09:00;10.10;99.90
3648;DHT22;1840;48.892;15.312;2023-04-24T15:11:28;10.10;99.90
3648;DHT22;1840;48.892;15.312;2023-04-24T15:13:57;10.10;99.90
3648;DHT22;1840;48.892;15.312;2023-04-24T15:16:25;10.40;99.90
3648;DHT22;1840;48.892;15.312;2023-04-24T15:18:53;10.40;99.90
3648;DHT22;1840;48.892;15.312;2023-04-24T15:21:23;10.40;99.90
3648;DHT22;1840;48.892;15.312;2023-04-24T15:23:51;10.20;99.90
3648;DHT22;1840;48.892;15.312;2023-04-24T15:26:19;10.60;99.90
3648;DHT22;1840;48.892;15.312;2023-04-24T15:28:47;10.70;99.90
3648;DHT22;1840;48.892;15.312;2023-04-24T15:31:16;10.80;99.90
3648;DHT22;1840;48.892;15.312;2023-04-24T15:33:44;11.00;99.90
3648;DHT22;1840;48.892;15.312;2023-04-24T15:36:13;10.90;99.90
3648;DHT22;1840;48.892;15.312;2023-04-24T15:38:42;10.90;99.90
3648;DHT22;1840;48.892;15.312;2023-04-24T15:41:11;10.90;99.90
3648;DHT22;1840;48.892;15.312;2023-04-24T15:43:39;10.60;99.90
3648;DHT22;1840;48.892;15.312;2023-04-24T15:46:07;10.80;99.90
3648;DHT22;1840;48.892;15.312;2023-04-24T15:48:37;10.90;99.60
3648;DHT22;1840;48.892;15.312;2023-04-24T15:51:08;10.80;99.80
3648;DHT22;1840;48.892;15.312;2023-04-24T15:53:36;10.90;99.90
3648;DHT22;1840;48.892;15.312;2023-04-24T15:56:04;10.80;99.90
3648;DHT22;1840;48.892;15.312;2023-04-24T15:58:32;10.90;99.60
3648;DHT22;1840;48.892;15.312;2023-04-24T16:01:01;10.60;99.60
3648;DHT22;1840;48.892;15.312;2023-04-24T16:03:29;10.50;99.60
3648;DHT22;1840;48.892;15.312;2023-04-24T16:05:59;10.70;99.80
3648;DHT22;1840;48.892;15.312;2023-04-24T16:08:27;10.70;99.20
3648;DHT22;1840;48.892;15.312;2023-04-24T16:10:56;10.70;99.20